logo
Games tagged Rome
# Game Release date
Price
Score rank
(Userscore / Metascore)
Owners
Players
Playtime (Median)
Developer(s)
Publisher(s)
1 Rome: Total War - Collection Sep 22, 2004 N/AN/A (N/A/92%)1,000,000 .. 2,000,0002.67%00:05 (00:02)CREATIVE ASSEMBLYSEGA
2 Assassin’s Creed Brotherhood Mar 22, 2011 $19.99N/A (N/A/88%)1,000,000 .. 2,000,0000%00:00 (00:00)Ubisoft MontrealUbisoft
3 Field of Glory II Oct 12, 2017 $7.49N/A (N/A/84%)20,000 .. 50,0000%00:00 (00:00)Byzantine GamesSlitherine Ltd.
4 The Age of Decadence Oct 14, 2015 $12.99N/A (N/A/81%)100,000 .. 200,0000%00:00 (00:00)Iron Tower StudioIron Tower Studio
5 Time Commando Jul 31, 1996 $5.99N/A (N/A/80%)500,000 .. 1,000,0000%00:00 (00:00)[2.21][2.21]
6 Total War: ATTILA Feb 17, 2015 $44.99N/A (N/A/80%)2,000,000 .. 5,000,0005.08%05:43 (05:23)CREATIVE ASSEMBLYSEGA
7 Europa Universalis: Rome - Gold Edition Nov 19, 2008 $9.99N/A (N/A/79%)50,000 .. 100,0000%00:00 (00:00)Paradox Development StudioParadox Interactive
8 Rome: Total War - Alexander Jun 26, 2006 N/AN/A (N/A/79%)500,000 .. 1,000,0000%00:00 (00:00)The Creative AssemblySEGA
9 Praetorians Mar 10, 2003 $4.99N/A (N/A/78%)100,000 .. 200,0000%00:00 (00:00)Pyro StudiosKalypso Media Digital
10 Total War: ROME II - Emperor Edition Sep 2, 2013 $59.99N/A (N/A/76%)2,000,000 .. 5,000,0003.85%09:58 (12:44)CREATIVE ASSEMBLYSEGA
11 Field of Glory: Empires Jul 11, 2019 $39.99N/A (N/A/76%)0 .. 20,0000%00:00 (00:00)AgeodSlitherine Ltd.
12 Aggressors: Ancient Rome Aug 30, 2018 $29.99N/A (N/A/76%)0 .. 20,0000%00:00 (00:00)Kubat SoftwareSlitherine Ltd.
13 Imperator: Rome Apr 25, 2019 $39.99N/A (N/A/76%)500,000 .. 1,000,0004.76%28:50 (18:07)Paradox Development StudioParadox Interactive
14 Caesar IV Sep 9, 2006 $9.99N/A (N/A/74%)100,000 .. 200,0000%00:00 (00:00)Tilted Mill Entertainment, Inc.Activision
15 Domina Apr 3, 2017 $9.99N/A (N/A/73%)200,000 .. 500,0004.35%13:56 (04:38)Dolphin Barn IncorporatedDolphin Barn Incorporated
16 Qvadriga Jun 13, 2014 $19.99N/A (N/A/72%)50,000 .. 100,0000%00:00 (00:00)TurnopiaSlitherine Ltd.
17 Grand Ages: Rome Mar 20, 2009 $9.99N/A (N/A/72%)200,000 .. 500,0000%00:00 (00:00)Haemimont GamesKalypso Media Digital
18 CivCity: Rome Apr 6, 2007 $9.99N/A (N/A/67%)50,000 .. 100,0000%00:00 (00:00)FireFly Studios, Firaxis Games2K
19 Imperium Romanum Gold Edition Oct 30, 2008 $9.99N/A (N/A/63%)100,000 .. 200,0000%00:00 (00:00)Haemimont GamesKalypso Media Digital
20 Ryse: Son of Rome Oct 10, 2014 $9.99N/A (N/A/61%)1,000,000 .. 2,000,0002.13%03:43 (02:07)CrytekCrytek
21 CaesarIA Jan 20, 2015 FreeN/A (N/A)200,000 .. 500,0000%00:00 (00:00)rdt.32rdt.32
22 Gladio and Glory Mar 16, 2021 FreeN/A (N/A)100,000 .. 200,0000%00:00 (00:00)Adi ZhavoAdi Zhavo
23 Gladiators IDLE Dec 17, 2020 N/AN/A (N/A)0 .. 20,0000%00:00 (00:00)Renan Miguelote ViannaRenan Miguelote Vianna
24 Legacy of Sin the father sacrifice Oct 20, 2021 $5.59N/A (N/A)0 .. 20,0000%00:00 (00:00)Absolute Power Game StudioAbsolute Power Game Studio
25 Gallic Wars: Battle Simulator Prologue Oct 16, 2020 FreeN/A (N/A)0 .. 20,0000%00:00 (00:00)MadGamesmithGaming Factory S.A.
26 Demise of Nations Aug 8, 2017 FreeN/A (N/A)100,000 .. 200,0000%00:00 (00:00)Noble Master LLCNoble Master LLC
27 VR King Arthur’s Sword in Romano Britania Aug 19, 2021 $6.99N/A (N/A)0 .. 20,0000%00:00 (00:00)VR RETRO REMASTERVR RETRO REMASTER
28 Fallen Rebellion Jan 4, 2021 $0.99N/A (N/A)0 .. 20,0000%00:00 (00:00)Leszczynski D Joseph, BazkreyolBazkreyol Games
29 罗马之链 May 13, 2020 $3.99N/A (N/A)20,000 .. 50,0000%00:00 (00:00)CorvusCorax_studioCorvusCorax_studio
30 Cubers: Arena Jul 28, 2020 $14.99N/A (N/A)0 .. 20,0000%00:00 (00:00)Tomasz Dziobek (TomiGames)Teyon
31 Roman Way Jul 29, 2020 $9.99N/A (N/A)0 .. 20,0000%00:00 (00:00)NyberiusNyberius
32 VR Travelling in the Roman Empire (VR Rome Time machine travel in history) Aug 18, 2020 $9.99N/A (N/A)0 .. 20,0000%00:00 (00:00)William at OxfordWilliam at Oxford
33 ガリア戦記 雄篇アンナーレス Oct 29, 2020 $8.99N/A (N/A)0 .. 20,0000%00:00 (00:00)Swan LLCSwan LLC
34 Gallic Wars: Battle Simulator Oct 30, 2020 $2.49N/A (N/A)0 .. 20,0000%00:00 (00:00)MadGamesmithGaming Factory S.A.
35 Historical Games: Chariot Racing Nov 13, 2020 $9.99N/A (N/A)0 .. 20,0000%00:00 (00:00)Flyover ZoneFlyover Zone
36 Glory of Rome Dec 16, 2020 $6.99N/A (N/A)0 .. 20,0000%00:00 (00:00)Simon CodringtonSimon Codrington
37 ArtFormer: Ancient Stories Sep 29, 2021 $14.99N/A (N/A)0 .. 20,0000%00:00 (00:00)Jan Šídlo, Adam HrubýBuffa Software
38 Phucker in the Ashes Feb 7, 2021 $2.99N/A (N/A)0 .. 20,0000%00:00 (00:00)GZ Storm, LazroolGZ Storm, Lazrool
39 For Sparta Mar 22, 2021 $1.99N/A (N/A)0 .. 20,0000%00:00 (00:00)Gamecraft StudiosGamecraft Studios
40 Gladia Apr 20, 2021 $1.99N/A (N/A)0 .. 20,0000%00:00 (00:00)Lance GamesLance Games
41 Total War: ROME REMASTERED Apr 29, 2021 $29.99N/A (N/A)200,000 .. 500,0000%00:00 (00:00)Creative Assembly, Feral InteractiveSEGA
42 GLADIUM Jun 24, 2021 $9.99N/A (N/A)0 .. 20,0000%00:00 (00:00)Lorebound EntertainmentLorebound Entertainment
43 Legion Gold Jul 9, 2020 $9.99N/A (N/A)0 .. 20,0000%00:00 (00:00)Slitherine Ltd.Slitherine Ltd.
44 Concordia: Digital Edition Sep 28, 2021 $18.99N/A (N/A)0 .. 20,0000%00:00 (00:00)Acram DigitalAcram Digital
45 Shield Impact Aug 29, 2018 $0.99N/A (N/A)0 .. 20,0000%00:00 (00:00)Magitech GamesMagitech Games
46 Shieldwall Mar 23, 2020 $13.99N/A (N/A)100,000 .. 200,0000%00:00 (00:00)Nezon ProductionNezon Production
47 Ludus Feb 20, 2020 $4.99N/A (N/A)50,000 .. 100,0000%00:00 (00:00)Cheesecake DevCheesecake Dev
48 Patched world Feb 7, 2020 $1.99N/A (N/A)0 .. 20,0000%00:00 (00:00)MoondolinoMoondolino
49 Praetorians - HD Remaster Jan 24, 2020 $19.99N/A (N/A)0 .. 20,0000%00:00 (00:00)Torus Games, Pyro StudiosKalypso Media
50 Orbi Universo Jan 10, 2020 $14.99N/A (N/A)0 .. 20,0000%00:00 (00:00)Orbi Universo TeamOrbi Universo Team
51 Story of a Gladiator Nov 27, 2019 $10.99N/A (N/A)0 .. 20,0000%00:00 (00:00)Brain Seal LtdBrain Seal Ltd
52 Asterix & Obelix XXL 3 - The Crystal Menhir Nov 21, 2019 $29.99N/A (N/A)0 .. 20,0000%00:00 (00:00)Osome StudioMicroids
53 A Legionary's Life Sep 25, 2019 $7.99N/A (N/A)50,000 .. 100,00050%04:44 (04:44)Alessandro RobertiAlessandro Roberti
54 Last Day of Rome Sep 6, 2019 $11.99N/A (N/A)0 .. 20,0000%00:00 (00:00)HamstersHamsters
55 The Last Roman Village Jul 26, 2019 $4.99N/A (N/A)0 .. 20,0000%00:00 (00:00)Twin Stone StudioTwin Stone Studio
56 Pax Romana: Romulus May 27, 2019 $2.6N/A (N/A)0 .. 20,0000%00:00 (00:00)Locus LudusLocus Ludus
57 Lyratha: Labyrinth - Survival - Escape Mar 11, 2019 $6.99N/A (N/A)20,000 .. 50,0000%00:00 (00:00)Lord ImperioLord Imperio
58 Citizen of Rome - Dynasty Ascendant May 16, 2019 $6.99N/A (N/A)100,000 .. 200,0000%00:00 (00:00)Citizen of Rome - Dynasty Ascendant, Sathvik Software SolutionsCitizen of Rome - Dynasty Ascendant, Sathvik Software Solutions
59 Romopolis Mar 29, 2009 $3.99N/A (N/A)20,000 .. 50,0000%00:00 (00:00)Lonely TroopsLonely Troops
60 Age of Gladiators II: Rome Aug 21, 2018 $19.99N/A (N/A)20,000 .. 50,0000%00:00 (00:00)Creative Storm EntertainmentCreative Storm Entertainment
61 Formata Dec 7, 2017 $9.99N/A (N/A)50,000 .. 100,0000%00:00 (00:00)Nezon ProductionNezon Production
62 Mare Nostrvm Nov 2, 2017 $19.99N/A (N/A)0 .. 20,0000%00:00 (00:00)TurnopiaSlitherine Ltd.
63 Empire Architect Oct 6, 2017 $14.99N/A (N/A)20,000 .. 50,0000%00:00 (00:00)Batholith EntertainmentBatholith Entertainment
64 Swords and Sandals 2 Redux Jun 29, 2017 $8.99N/A (N/A)50,000 .. 100,0000%00:00 (00:00)Whiskeybarrel StudioseGames.com
65 Caesar 3 May 30, 1999 $5.99N/A (N/A)200,000 .. 500,0000%00:00 (00:00)Impressions GamesActivision
66 Age of Gladiators Feb 25, 2016 $9.99N/A (N/A)100,000 .. 200,0000%00:00 (00:00)Creative Storm EntertainmentCreative Storm Entertainment
67 Hegemony III: Clash of the Ancients Aug 25, 2015 $29.99N/A (N/A)20,000 .. 50,0000%00:00 (00:00)Longbow GamesLongbow Games
68 CHARIOT WARS May 25, 2015 $6.99N/A (N/A)0 .. 20,0000%00:00 (00:00)OM ENTERTAINMENTOM ENTERTAINMENT
69 I, Gladiator Apr 7, 2015 $7.99N/A (N/A)20,000 .. 50,0000%00:00 (00:00)Steel MonkeysNext Dimension Game Adventures Ltd.
70 Hegemony Rome: The Rise of Caesar May 15, 2014 $14.99N/A (N/A)50,000 .. 100,0000%00:00 (00:00)Longbow GamesLongbow Games
71 Alea Jacta Est Sep 27, 2012 $24.99N/A (N/A)50,000 .. 100,0000%00:00 (00:00)AgeodSlitherine Ltd.
Overview

Rome

Games with this tag: 71
Average userscore: N/A%
Average metascore: 76.35%
Average playtime: 09:34
Total copies owned: 15,545,000
Average price: $13.23
Help

Owners: Estimated number of people owning this game. The number might be way too small for new releases and sometimes way too big for games that had free weekend event recently. Read more on About page.

Playtime: Average hours played in total per person that have actually launched this game since March 2009. This time is calculated for the whole lifetime, not for the particular year.

Average score: Average users and metacritic score for all games with this score assigned.

Average playtime: Average lifetime playtime for all games where this data is available.

Games in this genre: Self-explaining - number of games with this tag. Only inculdes games with sales data available.

Total copies owned: Refers to total copies of games with this tag acquired by users for the lifetime. Includes copies sold, downloaded for free and given out.

This number might be too small for recently released games or too big for games that had a free weekend in the last couple of months.

Graphs

Login required.

Please register or log in to see this information.

Login required.

Please register or log in to see this information.